Time;durP1;ratioP1;P1;durP2;ratioP2;P2;SDS_P1;SDS_P2;PMS_P1;PMS_P2;Temp;Humidity;BMP_temperature;BMP_pressure;BME280_temperature;BME280_humidity;BME280_pressure;Samples;Min_cycle;Max_cycle;Signal;HPM_P1;HPM_P2
2024/03/08 00:00:14;;;;;;;35.60;17.50;;;;;;;-147.86;100.00;25104.63;109248;1255;64662;-43
2024/03/08 00:05:39;;;;;;;;;;;;;;;-147.86;100.00;31989.89;102738;1292;600284;-44
2024/03/08 00:08:09;;;;;;;34.30;15.90;;;;;;;-147.86;100.00;26003.34;105075;1268;59293;-43
2024/03/08 00:10:38;;;;;;;31.20;15.50;;;;;;;-147.86;100.00;26770.40;104868;1266;59286;-45
2024/03/08 00:13:07;;;;;;;28.40;15.20;;;;;;;-147.86;100.00;27069.84;104937;1264;70962;-45
2024/03/08 00:15:35;;;;;;;32.20;15.90;;;;;;;-147.86;100.00;27336.16;104861;1266;64263;-44
2024/03/08 00:18:03;;;;;;;34.60;17.00;;;;;;;-147.86;100.00;27478.89;104888;1267;71421;-45
2024/03/08 00:20:31;;;;;;;28.10;15.60;;;;;;;-147.86;100.00;27571.35;105026;1263;59980;-45
2024/03/08 00:22:59;;;;;;;27.80;14.70;;;;;;;-147.86;100.00;27749.96;105258;1264;59234;-45
2024/03/08 00:25:27;;;;;;;28.50;15.40;;;;;;;-147.86;100.00;27913.78;105297;1260;70782;-45
2024/03/08 00:27:59;;;;;;;36.90;16.50;;;;;;;-147.86;100.00;27997.25;105293;1266;64028;-46
2024/03/08 00:30:27;;;;;;;35.70;16.50;;;;;;;-147.86;100.00;27744.21;105282;1265;71442;-46
2024/03/08 00:32:55;;;;;;;31.00;14.80;;;;;;;-147.86;100.00;28022.20;105315;1265;59721;-44
2024/03/08 00:35:23;;;;;;;30.00;15.10;;;;;;;-147.86;100.00;27970.32;105636;1259;59648;-43
2024/03/08 00:37:50;;;;;;;28.80;14.80;;;;;;;-147.86;100.00;27909.09;105664;1257;71770;-46
2024/03/08 00:40:18;;;;;;;29.90;15.40;;;;;;;-147.86;100.00;27842.78;105687;1257;64024;-45
2024/03/08 00:42:46;;;;;;;27.90;16.00;;;;;;;-147.86;100.00;27758.53;105617;1256;71924;-46
2024/03/08 00:45:14;;;;;;;34.40;16.00;;;;;;;-147.86;100.00;27674.67;105606;1256;59742;-44
2024/03/08 00:47:43;;;;;;;32.30;16.00;;;;;;;-147.86;100.00;27512.04;105707;1255;60427;-45
2024/03/08 00:50:12;;;;;;;32.90;15.30;;;;;;;-147.86;100.00;27221.92;105635;1257;71929;-45
2024/03/08 00:52:40;;;;;;;31.60;16.00;;;;;;;-147.86;100.00;27060.83;105683;1257;63915;-45
2024/03/08 01:06:13;;;;;;;;;;;;;;;-147.86;100.00;26798.68;102699;1292;600054;-44
2024/03/08 01:08:42;;;;;;;32.90;15.80;;;;;;;-147.86;100.00;23397.19;104864;1269;59699;-46
2024/03/08 01:11:11;;;;;;;38.70;16.80;;;;;;;-147.86;100.00;23843.00;104842;1267;59933;-45
2024/03/08 01:13:39;;;;;;;30.90;16.00;;;;;;;-147.86;100.00;23408.59;104850;1279;71189;-44
2024/03/08 01:16:07;;;;;;;33.20;15.70;;;;;;;-147.86;100.00;23122.59;104827;1270;64316;-46
2024/03/08 01:18:35;;;;;;;29.00;16.50;;;;;;;-147.86;100.00;22660.99;105274;1266;72017;-46
2024/03/08 01:21:03;;;;;;;30.40;15.80;;;;;;;-147.86;100.00;22213.05;105413;1258;270991;-46
2024/03/08 01:23:31;;;;;;;31.00;16.30;;;;;;;-147.86;100.00;21625.01;105623;1260;59416;-45
2024/03/08 01:25:59;;;;;;;31.30;16.50;;;;;;;-147.86;100.00;21162.36;105557;1258;71061;-46
2024/03/08 01:28:27;;;;;;;35.30;17.60;;;;;;;-147.86;100.00;20432.72;105540;1262;64268;-45
2024/03/08 01:30:58;;;;;;;31.20;18.10;;;;;;;-147.86;100.00;19493.82;105555;1262;72604;-43
2024/03/08 01:33:26;;;;;;;32.60;16.60;;;;;;;-147.86;100.00;18160.69;105531;1257;59805;-43
2024/03/08 01:35:54;;;;;;;31.60;15.90;;;;;;;-147.86;100.00;17462.66;105648;1257;59698;-43
2024/03/08 01:38:22;;;;;;;30.80;16.10;;;;;;;-147.86;100.00;16687.03;105609;1262;73019;-43
2024/03/08 01:40:51;;;;;;;31.70;16.60;;;;;;;-147.86;100.00;15870.34;105586;1260;63133;-45
2024/03/08 01:43:19;;;;;;;33.40;17.50;;;;;;;-147.86;100.00;14923.22;105587;1260;71413;-43
2024/03/08 01:45:47;;;;;;;29.30;16.50;;;;;;;-147.86;100.00;13972.03;105618;1261;59791;-44
2024/03/08 01:48:15;;;;;;;33.50;17.50;;;;;;;-147.86;100.00;12809.31;105607;1260;59572;-44
2024/03/08 01:50:44;;;;;;;32.90;16.90;;;;;;;-147.86;100.00;11490.03;105608;1263;71796;-44
2024/03/08 01:53:12;;;;;;;32.90;17.30;;;;;;;-147.86;100.00;10282.65;105470;1258;63910;-44
2024/03/08 01:55:39;;;;;;;33.50;17.90;;;;;;;-147.86;100.00;9350.09;105507;1258;71412;-46
2024/03/08 01:58:07;;;;;;;39.50;18.30;;;;;;;-147.86;100.00;8543.49;105578;1258;59676;-44
2024/03/08 02:00:35;;;;;;;33.70;17.20;;;;;;;-147.86;100.00;7896.95;105575;1258;60010;-45
2024/03/08 02:03:03;;;;;;;35.50;17.90;;;;;;;-147.86;100.00;7376.61;105613;1258;71989;-45
2024/03/08 02:05:32;;;;;;;31.70;17.30;;;;;;;-147.86;100.00;6795.44;105576;1262;65193;-44
2024/03/08 02:08:00;;;;;;;40.30;20.00;;;;;;;-147.86;100.00;6220.15;105433;1264;71400;-43
2024/03/08 02:10:27;;;;;;;35.00;17.80;;;;;;;-147.86;100.00;5508.44;105304;1263;59756;-45
2024/03/08 02:12:55;;;;;;;33.10;18.00;;;;;;;-147.86;100.00;4693.34;105588;1261;59564;-46
2024/03/08 03:06:03;;;;;;;;;;;;;;;-147.86;100.00;-3410.34;102766;1294;600249;-43
2024/03/08 03:08:31;;;;;;;27.90;17.00;;;;;;;-147.86;100.00;-12353.77;105141;1277;60821;-44
2024/03/08 03:10:59;;;;;;;30.30;17.00;;;;;;;-147.86;100.00;-11909.07;105130;1270;59294;-48
2024/03/08 03:13:29;;;;;;;36.00;18.40;;;;;;;-147.86;100.00;-11698.28;105010;1269;72202;-45
2024/03/08 03:15:57;;;;;;;33.80;18.00;;;;;;;-147.86;100.00;-11790.55;105102;1264;63905;-43
2024/03/08 03:18:27;;;;;;;32.10;18.20;;;;;;;-147.86;100.00;-11733.42;105092;1267;71445;-45
2024/03/08 03:20:55;;;;;;;33.90;17.50;;;;;;;-147.86;100.00;-11807.15;105078;1263;217871;-45
2024/03/08 03:23:23;;;;;;;35.30;18.50;;;;;;;-147.86;100.00;-11775.89;105218;1266;59694;-43
2024/03/08 03:25:52;;;;;;;37.60;19.70;;;;;;;-147.86;100.00;-11885.92;105200;1266;71931;-43
2024/03/08 03:28:21;;;;;;;33.20;18.00;;;;;;;-147.86;100.00;-12077.40;105983;1260;64055;-45
2024/03/08 03:30:49;;;;;;;38.40;20.30;;;;;;;-147.86;100.00;-12237.60;105951;1254;71435;-43
2024/03/08 03:33:17;;;;;;;37.60;18.90;;;;;;;-147.86;100.00;-12254.98;106033;1254;60165;-43
2024/03/08 03:36:55;;;;;;;;;;;;;;;-147.86;100.00;-16509.07;102502;1294;603794;-43
2024/03/08 03:39:24;;;;;;;32.70;17.10;;;;;;;-147.86;100.00;-17609.17;105084;1266;59145;-43
2024/03/08 03:41:51;;;;;;;34.40;19.20;;;;;;;-147.86;100.00;-17609.17;105171;1267;60399;-45
2024/03/08 03:44:18;;;;;;;37.30;19.00;;;;;;;-147.86;100.00;-17609.17;105747;1254;72151;-43
2024/03/08 03:46:45;;;;;;;47.30;19.50;;;;;;;-147.86;100.00;-17609.17;105772;1259;65437;-46
2024/03/08 03:49:12;;;;;;;32.80;17.30;;;;;;;-147.86;100.00;-17609.17;105583;1251;258833;-45
2024/03/08 03:51:39;;;;;;;32.10;18.70;;;;;;;-147.86;100.00;-17609.17;105950;1255;60866;-44
2024/03/08 03:54:06;;;;;;;36.80;20.20;;;;;;;-147.86;100.00;-17609.17;105919;1252;60371;-44
2024/03/08 03:56:34;;;;;;;37.50;18.70;;;;;;;-147.86;100.00;-17609.17;105941;1251;72178;-43
2024/03/08 03:59:01;;;;;;;32.80;17.80;;;;;;;-147.86;100.00;-17609.17;106024;1258;65557;-43
2024/03/08 04:01:29;;;;;;;34.90;19.20;;;;;;;-147.86;100.00;-17609.17;105996;1253;72487;-44
2024/03/08 04:03:56;;;;;;;43.50;19.10;;;;;;;-147.86;100.00;-17609.17;105917;1256;59752;-42
2024/03/08 04:06:24;;;;;;;31.90;18.60;;;;;;;-147.86;100.00;-17609.17;105962;1251;60304;-45
2024/03/08 04:08:51;;;;;;;32.20;18.40;;;;;;;-147.86;100.00;-17609.17;105986;1257;72817;-46
2024/03/08 04:11:18;;;;;;;31.90;18.10;;;;;;;-147.86;100.00;-17609.17;105953;1257;64579;-45
2024/03/08 04:13:45;;;;;;;31.10;17.30;;;;;;;-147.86;100.00;-17609.17;105950;1251;71474;-45
2024/03/08 04:16:12;;;;;;;30.90;16.70;;;;;;;-147.86;100.00;-17609.17;105969;1256;59640;-44
2024/03/08 04:18:38;;;;;;;37.50;17.20;;;;;;;-147.86;100.00;-17609.17;105981;1251;60316;-44
2024/03/08 04:21:06;;;;;;;29.50;16.80;;;;;;;-147.86;100.00;-17609.17;105988;1253;72988;-44
2024/03/08 04:23:35;;;;;;;30.70;17.40;;;;;;;-147.86;100.00;-17609.17;105974;1258;65394;-43
2024/03/08 04:26:04;;;;;;;33.00;15.90;;;;;;;-147.86;100.00;-17609.17;105944;1251;72410;-43
2024/03/08 04:28:31;;;;;;;29.00;16.70;;;;;;;-147.86;100.00;-17609.17;105969;1251;61324;-43
2024/03/08 04:31:00;;;;;;;27.40;15.40;;;;;;;-147.86;100.00;-17609.17;106021;1251;60317;-42
2024/03/08 04:33:28;;;;;;;27.10;15.40;;;;;;;-147.86;100.00;-17609.17;105978;1252;72942;-43
2024/03/08 04:35:55;;;;;;;30.90;16.60;;;;;;;-147.86;100.00;-17609.17;105955;1251;65447;-43
2024/03/08 04:38:22;;;;;;;30.50;16.60;;;;;;;-147.86;100.00;-17609.17;105961;1251;72636;-45
2024/03/08 04:40:50;;;;;;;28.70;16.20;;;;;;;-147.86;100.00;-17609.17;105986;1256;59955;-43
2024/03/08 04:43:18;;;;;;;31.00;16.80;;;;;;;-147.86;100.00;-17609.17;105801;1251;60164;-44
2024/03/08 04:45:45;;;;;;;28.00;15.80;;;;;;;-147.86;100.00;-17609.17;105970;1256;73002;-42
2024/03/08 04:48:12;;;;;;;27.50;15.60;;;;;;;-147.86;100.00;-17609.17;105766;1259;65407;-44
2024/03/08 04:50:39;;;;;;;29.10;16.50;;;;;;;-147.86;100.00;-17609.17;105984;1257;72785;-44
2024/03/08 04:53:07;;;;;;;29.50;16.30;;;;;;;-147.86;100.00;-17609.17;105924;1257;59556;-45
2024/03/08 04:55:35;;;;;;;29.80;16.30;;;;;;;-147.86;100.00;-17609.17;105958;1256;60348;-44
2024/03/08 04:58:04;;;;;;;32.10;16.70;;;;;;;-147.86;100.00;-17609.17;106012;1254;73650;-43
2024/03/08 05:00:32;;;;;;;38.30;17.00;;;;;;;-147.86;100.00;-17609.17;105948;1257;65570;-43
2024/03/08 05:02:59;;;;;;;34.30;16.50;;;;;;;-147.86;100.00;-17609.17;105993;1251;73068;-44
2024/03/08 05:05:28;;;;;;;30.60;16.00;;;;;;;-147.86;100.00;-17609.17;105968;1256;59555;-44
2024/03/08 05:07:55;;;;;;;34.90;17.70;;;;;;;-147.86;100.00;-17609.17;105942;1251;60851;-44
2024/03/08 05:10:22;;;;;;;31.40;17.30;;;;;;;-147.86;100.00;-17609.17;105949;1251;72963;-44
2024/03/08 05:12:49;;;;;;;32.60;17.00;;;;;;;-147.86;100.00;-17609.17;105927;1257;65251;-43
2024/03/08 05:15:20;;;;;;;30.40;16.70;;;;;;;-147.86;100.00;-17609.17;106040;1251;71273;-43
2024/03/08 05:17:47;;;;;;;40.80;18.40;;;;;;;-147.86;100.00;-17609.17;105903;1257;61020;-43
2024/03/08 05:20:15;;;;;;;31.10;16.00;;;;;;;-147.86;100.00;-17609.17;105902;1251;60247;-43
2024/03/08 05:22:42;;;;;;;26.90;15.10;;;;;;;-147.86;100.00;-17609.17;105780;1255;71930;-43
2024/03/08 05:25:09;;;;;;;26.60;15.60;;;;;;;-147.86;100.00;-17609.17;105977;1255;65311;-44
2024/03/08 05:27:36;;;;;;;35.50;17.00;;;;;;;-147.86;100.00;-17609.17;105994;1251;72478;-42
2024/03/08 05:30:06;;;;;;;24.80;14.90;;;;;;;-147.86;100.00;-17609.17;105925;1262;59557;-44
2024/03/08 05:32:33;;;;;;;31.50;14.60;;;;;;;-147.86;100.00;-17609.17;105957;1251;60340;-42
2024/03/08 05:35:01;;;;;;;27.90;15.90;;;;;;;-147.86;100.00;-17609.17;105948;1251;72941;-45
2024/03/08 05:37:28;;;;;;;29.30;14.80;;;;;;;-147.86;100.00;-17609.17;106008;1256;65654;-43
2024/03/08 05:39:55;;;;;;;32.80;14.30;;;;;;;-147.86;100.00;-17609.17;105970;1251;71640;-45
2024/03/08 05:42:22;;;;;;;28.40;15.60;;;;;;;-147.86;100.00;-17609.17;106008;1257;59560;-45
2024/03/08 05:44:49;;;;;;;25.20;15.90;;;;;;;-147.86;100.00;-17609.17;106073;1251;60284;-44
2024/03/08 05:47:18;;;;;;;26.60;15.20;;;;;;;-147.86;100.00;-17609.17;105998;1256;72944;-46
2024/03/08 05:49:45;;;;;;;28.70;15.80;;;;;;;-147.86;100.00;-17609.17;105962;1257;65402;-44
2024/03/08 05:52:12;;;;;;;31.10;15.70;;;;;;;-147.86;100.00;-17609.17;105990;1251;72718;-44
2024/03/08 05:54:40;;;;;;;25.80;15.20;;;;;;;-147.86;100.00;-17609.17;105969;1256;59800;-44
2024/03/08 05:57:07;;;;;;;25.00;15.10;;;;;;;-147.86;100.00;-17609.17;106046;1251;60076;-44
2024/03/08 05:59:35;;;;;;;25.00;14.30;;;;;;;-147.86;100.00;-17609.17;105929;1251;72872;-45
2024/03/08 06:02:03;;;;;;;27.30;14.40;;;;;;;-147.86;100.00;-17609.17;106042;1257;63922;-45
2024/03/08 06:04:30;;;;;;;29.90;15.80;;;;;;;-147.86;100.00;-17609.17;105946;1257;72347;-43
2024/03/08 06:06:58;;;;;;;36.10;14.80;;;;;;;-147.86;100.00;-17609.17;105977;1256;60840;-44
2024/03/08 06:09:25;;;;;;;25.90;13.40;;;;;;;-147.86;100.00;-17609.17;105981;1251;60782;-43
2024/03/08 06:11:53;;;;;;;20.50;13.90;;;;;;;-147.86;100.00;-17609.17;105945;1256;74177;-47
2024/03/08 06:14:20;;;;;;;20.70;12.80;;;;;;;-147.86;100.00;-17609.17;105952;1257;65431;-45
2024/03/08 06:16:49;;;;;;;21.00;12.30;;;;;;;-147.86;100.00;-17609.17;105954;1251;72614;-45
2024/03/08 06:19:16;;;;;;;24.40;14.10;;;;;;;-147.86;100.00;-17609.17;105984;1256;59630;-43
2024/03/08 06:21:43;;;;;;;23.70;11.80;;;;;;;-147.86;100.00;-17609.17;105972;1251;60328;-43
2024/03/08 06:24:10;;;;;;;22.30;13.50;;;;;;;-147.86;100.00;-17609.17;105975;1256;72982;-46
2024/03/08 06:26:38;;;;;;;26.70;13.40;;;;;;;-147.86;100.00;-17609.17;105931;1251;65495;-43
2024/03/08 06:29:09;;;;;;;21.80;12.70;;;;;;;-147.86;100.00;-17609.17;105952;1251;72548;-45
2024/03/08 06:31:38;;;;;;;22.20;10.70;;;;;;;-147.86;100.00;-17609.17;105914;1256;60219;-44
2024/03/08 06:34:07;;;;;;;24.90;14.10;;;;;;;-147.86;100.00;-17609.17;105982;1251;60292;-44
2024/03/08 06:36:35;;;;;;;28.50;14.20;;;;;;;-147.86;100.00;-17609.17;105976;1256;73504;-44
2024/03/08 06:39:08;;;;;;;19.10;11.30;;;;;;;-147.86;100.00;-17609.17;106017;1256;65865;-43
2024/03/08 06:41:36;;;;;;;20.70;12.10;;;;;;;-147.86;100.00;-17609.17;105965;1257;72668;-44
2024/03/08 06:44:05;;;;;;;20.30;12.70;;;;;;;-147.86;100.00;-17609.17;105970;1257;59730;-44
2024/03/08 06:46:32;;;;;;;20.10;11.90;;;;;;;-147.86;100.00;-17609.17;106042;1251;60124;-43
2024/03/08 06:48:59;;;;;;;27.60;11.20;;;;;;;-147.86;100.00;-17609.17;105947;1251;72692;-43
2024/03/08 06:51:26;;;;;;;16.50;10.90;;;;;;;-147.86;100.00;-17609.17;105951;1256;65588;-43
2024/03/08 06:53:53;;;;;;;17.50;11.10;;;;;;;-147.86;100.00;-17609.17;105978;1251;72539;-44
2024/03/08 06:56:20;;;;;;;17.70;10.50;;;;;;;-147.86;100.00;-17609.17;105912;1257;59854;-44
2024/03/08 06:58:47;;;;;;;16.20;10.50;;;;;;;-147.86;100.00;-17609.17;105930;1256;60332;-46
2024/03/08 07:01:14;;;;;;;18.20;11.80;;;;;;;-147.86;100.00;-17609.17;105980;1251;74383;-46
2024/03/08 07:03:45;;;;;;;21.30;12.70;;;;;;;-147.86;100.00;-17609.17;105993;1255;65501;-44
2024/03/08 07:06:14;;;;;;;20.10;11.60;;;;;;;-147.86;100.00;-17609.17;105965;1251;72997;-43
2024/03/08 07:08:42;;;;;;;19.60;11.80;;;;;;;-147.86;100.00;-17609.17;105968;1255;59627;-45
2024/03/08 07:11:09;;;;;;;19.40;10.80;;;;;;;-147.86;100.00;-17609.17;105872;1251;60257;-47
2024/03/08 07:13:36;;;;;;;17.70;10.50;;;;;;;-147.86;100.00;-17609.17;106021;1256;74431;-47
2024/03/08 07:16:03;;;;;;;24.50;11.60;;;;;;;-147.86;100.00;-17609.17;105946;1257;65327;-44
2024/03/08 07:18:30;;;;;;;20.70;11.40;;;;;;;-147.86;100.00;-17609.17;105969;1256;71585;-45
2024/03/08 07:20:58;;;;;;;19.90;11.70;;;;;;;-147.86;100.00;-17609.17;105998;1257;60065;-42
2024/03/08 07:26:11;;;;;;;16.50;10.60;;;;;;;-147.86;100.00;-17609.17;105972;1256;74672;-45
2024/03/08 07:28:39;;;;;;;18.40;9.70;;;;;;;-147.86;100.00;-17609.17;105807;1251;65917;-46
2024/03/08 07:33:38;;;;;;;17.70;9.50;;;;;;;-147.86;100.00;-17609.17;105956;1255;59941;-45
2024/03/08 07:36:05;;;;;;;14.90;9.90;;;;;;;-147.86;100.00;-17609.17;106002;1251;61670;-43
2024/03/08 07:38:32;;;;;;;18.90;10.40;;;;;;;-147.86;100.00;-17609.17;105937;1251;72940;-43
2024/03/08 07:41:00;;;;;;;17.20;11.30;;;;;;;-147.86;100.00;-17609.17;106012;1256;65134;-45
2024/03/08 07:43:30;;;;;;;21.20;10.80;;;;;;;-147.86;100.00;-17609.17;105979;1257;73002;-47
2024/03/08 07:45:57;;;;;;;15.70;10.50;;;;;;;-147.86;100.00;-17609.17;105940;1254;60592;-46
2024/03/08 07:48:24;;;;;;;19.40;11.20;;;;;;;-147.86;100.00;-17609.17;105919;1251;60540;-45
2024/03/08 07:50:51;;;;;;;15.60;10.60;;;;;;;-147.86;100.00;-17609.17;106039;1251;73662;-44
2024/03/08 07:53:19;;;;;;;15.50;10.40;;;;;;;-147.86;100.00;-17609.17;105947;1255;65965;-44
2024/03/08 07:55:45;;;;;;;16.40;10.40;;;;;;;-147.86;100.00;-17609.17;105948;1251;73675;-45
2024/03/08 07:58:13;;;;;;;17.80;10.60;;;;;;;-147.86;100.00;-17609.17;105955;1253;60435;-45
2024/03/08 08:00:42;;;;;;;18.90;10.70;;;;;;;-147.86;100.00;-17609.17;105978;1251;61678;-46
2024/03/08 08:03:09;;;;;;;21.20;10.70;;;;;;;-147.86;100.00;-17609.17;105940;1251;74937;-47
2024/03/08 08:05:38;;;;;;;15.30;10.30;;;;;;;-147.86;100.00;-17609.17;105987;1251;66683;-44
2024/03/08 08:08:07;;;;;;;17.10;10.30;;;;;;;-147.86;100.00;-17609.17;105995;1251;71954;-43
2024/03/08 08:10:34;;;;;;;15.00;9.40;;;;;;;-147.86;100.00;-17609.17;105735;1257;62286;-46
2024/03/08 08:13:04;;;;;;;16.90;10.20;;;;;;;-147.86;100.00;-17609.17;105939;1251;61557;-46
2024/03/08 08:15:34;;;;;;;16.00;10.70;;;;;;;-147.86;100.00;-17609.17;105967;1256;74042;-43
2024/03/08 08:18:05;;;;;;;19.50;12.20;;;;;;;-147.86;100.00;-17608.59;105952;1256;67011;-45
2024/03/08 08:20:32;;;;;;;17.30;10.40;;;;;;;-147.86;99.97;-17064.88;105982;1251;73998;-47
2024/03/08 08:22:59;;;;;;;18.00;11.10;;;;;;;-147.86;98.11;-13213.46;105960;1256;60647;-47
2024/03/08 08:25:26;;;;;;;20.40;10.50;;;;;;;-147.86;97.02;-8419.03;106024;1251;60766;-44
2024/03/08 08:27:53;;;;;;;17.30;10.40;;;;;;;-147.86;97.08;-7033.92;105935;1254;73047;-45
2024/03/08 08:30:20;;;;;;;16.30;11.20;;;;;;;-147.86;97.24;-6588.60;105955;1256;65456;-46
2024/03/08 08:32:48;;;;;;;19.80;10.50;;;;;;;-147.86;96.54;-5004.72;105934;1251;73983;-49
2024/03/08 08:35:18;;;;;;;16.00;10.20;;;;;;;-147.86;95.24;-1042.20;105992;1251;60763;-45
2024/03/08 08:37:45;;;;;;;21.70;9.90;;;;;;;-147.86;94.66;2130.61;105981;1257;61038;-50
2024/03/08 08:40:14;;;;;;;19.10;11.30;;;;;;;-147.86;91.93;10026.47;105978;1257;73853;-48
2024/03/08 08:42:41;;;;;;;16.50;10.50;;;;;;;-147.86;89.83;26301.13;105924;1256;66559;-48
2024/03/08 08:45:09;;;;;;;19.10;10.60;;;;;;;-147.86;90.81;28269.46;105970;1251;74023;-46
2024/03/08 08:47:45;;;;;;;16.00;11.10;;;;;;;-147.86;91.30;25371.71;105971;1254;61008;-45
2024/03/08 08:50:12;;;;;;;23.10;12.30;;;;;;;-147.86;91.63;23865.05;106068;1251;60546;-47
2024/03/08 08:52:40;;;;;;;21.00;12.50;;;;;;;-147.86;90.66;26804.24;105986;1252;74733;-47
2024/03/08 08:55:08;;;;;;;18.90;10.80;;;;;;;-147.86;89.12;34208.87;105991;1257;67006;-50
2024/03/08 08:57:35;;;;;;;19.40;12.50;;;;;;;-147.86;87.91;40405.12;105941;1251;73841;-47
2024/03/08 09:00:07;;;;;;;19.60;10.10;;;;;;;-147.86;87.80;41459.39;105914;1256;60735;-49
2024/03/08 09:02:34;;;;;;;19.40;11.40;;;;;;;-147.86;87.02;42563.70;105948;1255;60479;-47
2024/03/08 09:05:02;;;;;;;18.10;10.40;;;;;;;-147.86;87.01;42909.02;105925;1251;74050;-47
2024/03/08 09:07:29;;;;;;;16.50;10.90;;;;;;;-147.86;87.15;42966.18;105954;1251;64758;-48
2024/03/08 09:09:58;;;;;;;18.30;11.30;;;;;;;-147.86;85.97;43506.56;105952;1251;73955;-47
2024/03/08 09:12:25;;;;;;;16.00;10.70;;;;;;;-147.86;84.17;44168.43;105962;1254;60685;-46
2024/03/08 09:14:52;;;;;;;16.60;11.10;;;;;;;-147.86;83.21;44500.98;105977;1251;61729;-49
2024/03/08 09:17:20;;;;;;;18.00;11.80;;;;;;;-147.86;82.48;44689.00;105967;1251;74926;-44
2024/03/08 09:19:48;;;;;;;17.50;10.40;;;;;;;-147.86;82.84;44714.85;105940;1251;66934;-46
2024/03/08 09:22:15;;;;;;;16.80;10.70;;;;;;;-147.86;80.92;44813.18;105954;1251;72815;-50
2024/03/08 09:24:43;;;;;;;16.70;11.00;;;;;;;-147.86;79.68;44923.26;105946;1256;60957;-47
2024/03/08 09:27:10;;;;;;;16.90;10.50;;;;;;;-147.86;79.68;44967.91;105980;1251;60463;-50
2024/03/08 09:29:37;;;;;;;17.70;10.10;;;;;;;-147.86;78.78;45003.56;105948;1257;73169;-47
2024/03/08 09:32:04;;;;;;;19.20;10.50;;;;;;;-147.86;79.64;45027.85;105996;1257;66268;-46
2024/03/08 09:34:32;;;;;;;17.80;11.20;;;;;;;-147.86;80.10;45014.93;106003;1251;72555;-44
2024/03/08 09:37:05;;;;;;;17.90;10.70;;;;;;;-147.86;80.93;45009.83;105985;1255;61168;-52
2024/03/08 09:39:33;;;;;;;18.60;10.60;;;;;;;-147.86;80.31;44995.73;105964;1251;61895;-51
2024/03/08 09:42:01;;;;;;;19.40;11.90;;;;;;;-147.86;79.29;45014.54;105940;1251;73382;-53
2024/03/08 09:44:31;;;;;;;20.10;10.70;;;;;;;-147.86;78.67;45064.68;105769;1254;63924;-52
2024/03/08 09:46:59;;;;;;;18.60;11.30;;;;;;;-147.86;78.75;45084.66;105956;1251;72824;-46
2024/03/08 09:49:26;;;;;;;27.30;11.20;;;;;;;-147.86;77.59;45086.23;105977;1254;60342;-51
2024/03/08 09:51:53;;;;;;;18.20;10.90;;;;;;;-147.86;76.49;45113.26;105919;1257;60556;-46
2024/03/08 09:54:21;;;;;;;15.10;10.10;;;;;;;-147.86;76.03;45114.43;105972;1254;75006;-54
2024/03/08 09:56:51;;;;;;;22.40;11.30;;;;;;;-147.86;76.08;45119.91;105975;1254;65838;-45
2024/03/08 10:01:58;;;;;;;16.50;10.70;;;;;;;-147.86;78.42;45157.92;106015;1254;60607;-51
2024/03/08 10:04:28;;;;;;;23.30;11.30;;;;;;;-147.86;80.44;45144.21;105974;1251;61741;-49
2024/03/08 10:06:56;;;;;;;19.80;11.90;;;;;;;-147.86;79.51;45125.40;106025;1254;73508;-47
2024/03/08 10:09:25;;;;;;;18.30;11.20;;;;;;;-147.86;79.98;45126.58;106044;1254;65537;-47
2024/03/08 10:11:56;;;;;;;20.70;11.40;;;;;;;-147.86;76.58;45141.07;105846;1251;72881;-47
2024/03/08 10:14:23;;;;;;;25.60;11.80;;;;;;;-147.86;75.12;45173.98;105983;1253;60545;-51
2024/03/08 10:16:50;;;;;;;21.50;11.60;;;;;;;-147.86;74.31;45194.36;105990;1254;60430;-54
2024/03/08 10:19:17;;;;;;;20.60;11.30;;;;;;;-147.86;73.15;45198.27;105695;1257;74263;-49
2024/03/08 10:21:53;;;;;;;19.40;11.80;;;;;;;-147.86;73.59;45228.82;105969;1254;65848;-50
2024/03/08 10:24:20;;;;;;;16.90;11.60;;;;;;;-147.86;72.20;45248.41;105952;1252;72078;-48
2024/03/08 10:26:47;;;;;;;18.90;11.40;;;;;;;-147.86;72.68;45255.86;105964;1254;60847;-50
2024/03/08 10:29:17;;;;;;;20.40;11.90;;;;;;;-147.86;73.98;45273.49;105998;1251;60546;-50
2024/03/08 10:31:45;;;;;;;17.30;11.50;;;;;;;-147.86;72.74;45289.16;106007;1250;75295;-49
2024/03/08 10:34:12;;;;;;;18.80;11.60;;;;;;;-147.86;72.51;45309.15;105948;1251;66206;-53
2024/03/08 10:36:40;;;;;;;17.60;11.00;;;;;;;-147.86;72.32;45322.46;105990;1251;74027;-50
2024/03/08 10:39:20;;;;;;;21.70;11.70;;;;;;;-147.86;71.46;45323.25;105954;1250;60527;-50
2024/03/08 10:41:54;;;;;;;14.90;10.70;;;;;;;-147.86;70.27;45355.38;106021;1250;61475;-51
2024/03/08 10:44:30;;;;;;;24.20;11.70;;;;;;;-147.86;69.81;45379.27;106013;1251;74178;-55
2024/03/08 10:47:10;;;;;;;15.80;10.80;;;;;;;-147.86;70.36;45401.61;105980;1254;64867;-49
2024/03/08 10:49:38;;;;;;;15.90;11.30;;;;;;;-147.86;68.58;45403.18;105989;1251;73661;-52
2024/03/08 10:52:10;;;;;;;19.10;11.60;;;;;;;-147.86;65.74;45435.70;105985;1251;60446;-51
2024/03/08 10:54:40;;;;;;;15.80;11.50;;;;;;;-147.86;62.75;45478.40;105959;1251;61717;-50
2024/03/08 10:57:12;;;;;;;18.00;11.60;;;;;;;-147.86;58.20;45523.46;105950;1251;74156;-53
2024/03/08 10:59:39;;;;;;;21.20;10.60;;;;;;;-147.86;55.60;45570.48;106010;1251;65221;-55
2024/03/08 11:02:08;;;;;;;18.80;11.40;;;;;;;-147.86;54.23;45625.33;105900;1256;74152;-55
2024/03/08 11:04:37;;;;;;;28.60;12.90;;;;;;;-147.86;55.40;45705.26;105970;1254;60758;-52
2024/03/08 11:07:07;;;;;;;22.90;13.30;;;;;;;-147.86;56.41;45748.36;105990;1254;60324;-47
2024/03/08 11:09:36;;;;;;;19.60;12.20;;;;;;;-147.86;58.76;45832.61;105914;1251;75023;-49
2024/03/08 11:12:19;;;;;;;20.30;13.10;;;;;;;-147.86;60.29;45878.06;106036;1251;64773;-50
2024/03/08 11:14:51;;;;;;;23.90;13.10;;;;;;;-147.86;60.90;45911.76;105962;1251;72804;-52
2024/03/08 11:17:31;;;;;;;21.60;13.10;;;;;;;-147.86;61.43;45900.00;106006;1254;61108;-48
2024/03/08 11:20:01;;;;;;;28.80;12.50;;;;;;;-147.86;60.12;45908.62;105988;1251;60428;-53
2024/03/08 11:22:31;;;;;;;23.40;12.30;;;;;;;-147.86;57.78;45936.05;105984;1254;75350;-53
2024/03/08 11:25:02;;;;;;;24.80;12.10;;;;;;;-147.86;57.37;45990.52;106065;1254;65051;-53
2024/03/08 11:27:31;;;;;;;26.10;14.00;;;;;;;-147.86;59.44;46012.46;105949;1251;74263;-50
2024/03/08 11:30:11;;;;;;;21.80;13.40;;;;;;;-147.86;59.61;46025.40;106018;1254;60546;-51
2024/03/08 11:32:46;;;;;;;22.50;12.20;;;;;;;-147.86;60.78;46095.93;105997;1251;60519;-51
2024/03/08 11:35:20;;;;;;;19.10;12.30;;;;;;;-147.86;62.55;46106.12;105960;1254;73865;-50
2024/03/08 11:37:47;;;;;;;27.90;13.70;;;;;;;-147.86;62.59;46090.05;106007;1254;64796;-51
2024/03/08 11:40:16;;;;;;;23.20;12.30;;;;;;;-147.86;62.18;46095.14;105998;1251;72833;-49
2024/03/08 11:42:49;;;;;;;25.80;12.70;;;;;;;-147.86;62.66;46095.14;105888;1254;62135;-56
2024/03/08 11:45:17;;;;;;;24.60;13.70;;;;;;;-147.86;64.09;46068.50;105984;1251;61984;-53
2024/03/08 11:47:47;;;;;;;20.70;12.70;;;;;;;-147.86;62.72;46043.81;105914;1251;73999;-51
2024/03/08 11:50:15;;;;;;;23.50;12.50;;;;;;;-147.86;61.99;46035.59;105988;1254;64941;-50
2024/03/08 11:52:43;;;;;;;23.30;12.10;;;;;;;-147.86;60.91;46040.68;105916;1251;73894;-53
2024/03/08 11:55:12;;;;;;;19.40;12.30;;;;;;;-147.86;60.64;46043.02;105984;1254;60360;-51
2024/03/08 11:57:39;;;;;;;28.40;13.10;;;;;;;-147.86;59.69;46044.59;105920;1256;60424;-46
2024/03/08 12:00:21;;;;;;;26.10;12.50;;;;;;;-147.86;59.49;46029.31;105926;1251;74391;-49
2024/03/08 12:03:04;;;;;;;21.80;12.10;;;;;;;-147.86;57.77;46049.69;105940;1251;64934;-51
2024/03/08 12:05:33;;;;;;;19.40;12.60;;;;;;;-147.86;54.81;46121.01;106041;1251;74034;-50